sensor_id;sensor_type;location;lat;lon;timestamp;temperature;humidity
33699;DHT22;20032;52.436;13.312;2022-12-18T00:01:22;-4.90;99.90
33699;DHT22;20032;52.436;13.312;2022-12-18T00:03:48;-4.80;99.90
33699;DHT22;20032;52.436;13.312;2022-12-18T00:06:15;-4.80;99.90
33699;DHT22;20032;52.436;13.312;2022-12-18T00:08:43;-4.90;99.90
33699;DHT22;20032;52.436;13.312;2022-12-18T00:11:12;-5.00;99.90
33699;DHT22;20032;52.436;13.312;2022-12-18T00:13:44;-4.90;99.90
33699;DHT22;20032;52.436;13.312;2022-12-18T00:16:13;-4.80;99.90
33699;DHT22;20032;52.436;13.312;2022-12-18T00:18:39;-4.80;99.90
33699;DHT22;20032;52.436;13.312;2022-12-18T00:21:08;-4.80;99.90
33699;DHT22;20032;52.436;13.312;2022-12-18T00:23:35;-4.80;99.90
33699;DHT22;20032;52.436;13.312;2022-12-18T00:26:03;-4.80;99.90
33699;DHT22;20032;52.436;13.312;2022-12-18T00:28:29;-4.80;99.90
33699;DHT22;20032;52.436;13.312;2022-12-18T00:31:15;-4.80;99.90
33699;DHT22;20032;52.436;13.312;2022-12-18T00:33:41;-4.70;99.90
33699;DHT22;20032;52.436;13.312;2022-12-18T00:36:11;-4.80;99.90
33699;DHT22;20032;52.436;13.312;2022-12-18T00:38:38;-4.80;99.90
33699;DHT22;20032;52.436;13.312;2022-12-18T00:41:05;-4.90;99.90
33699;DHT22;20032;52.436;13.312;2022-12-18T00:43:31;-4.90;99.90
33699;DHT22;20032;52.436;13.312;2022-12-18T00:45:58;-5.00;99.90
33699;DHT22;20032;52.436;13.312;2022-12-18T00:48:24;-5.10;99.90
33699;DHT22;20032;52.436;13.312;2022-12-18T00:50:50;-5.10;99.90
33699;DHT22;20032;52.436;13.312;2022-12-18T00:53:15;-5.00;99.90
33699;DHT22;20032;52.436;13.312;2022-12-18T00:55:42;-4.90;99.90
33699;DHT22;20032;52.436;13.312;2022-12-18T00:58:08;-4.80;99.90
33699;DHT22;20032;52.436;13.312;2022-12-18T01:00:34;-4.80;99.90
33699;DHT22;20032;52.436;13.312;2022-12-18T01:03:00;-4.70;99.90
33699;DHT22;20032;52.436;13.312;2022-12-18T01:05:26;-4.70;99.90
33699;DHT22;20032;52.436;13.312;2022-12-18T01:07:51;-4.80;99.90
33699;DHT22;20032;52.436;13.312;2022-12-18T01:10:17;-4.90;99.90
33699;DHT22;20032;52.436;13.312;2022-12-18T01:12:43;-4.90;99.90
33699;DHT22;20032;52.436;13.312;2022-12-18T01:15:10;-4.80;99.90
33699;DHT22;20032;52.436;13.312;2022-12-18T01:17:35;-4.70;99.90
33699;DHT22;20032;52.436;13.312;2022-12-18T01:20:01;-4.70;99.90
33699;DHT22;20032;52.436;13.312;2022-12-18T01:22:26;-4.80;99.90
33699;DHT22;20032;52.436;13.312;2022-12-18T01:24:54;-4.80;99.90
33699;DHT22;20032;52.436;13.312;2022-12-18T01:27:19;-4.70;99.90
33699;DHT22;20032;52.436;13.312;2022-12-18T01:29:45;-4.90;99.90
33699;DHT22;20032;52.436;13.312;2022-12-18T01:32:10;-4.90;99.90
33699;DHT22;20032;52.436;13.312;2022-12-18T01:34:37;-4.90;99.90
33699;DHT22;20032;52.436;13.312;2022-12-18T01:37:04;-5.00;99.90
33699;DHT22;20032;52.436;13.312;2022-12-18T01:39:29;-4.80;99.90
33699;DHT22;20032;52.436;13.312;2022-12-18T01:41:55;-4.90;99.90
33699;DHT22;20032;52.436;13.312;2022-12-18T01:45:05;-5.00;99.90
33699;DHT22;20032;52.436;13.312;2022-12-18T01:47:49;-5.00;99.90
33699;DHT22;20032;52.436;13.312;2022-12-18T01:52:53;-5.00;99.90
33699;DHT22;20032;52.436;13.312;2022-12-18T01:55:23;-5.10;99.90
33699;DHT22;20032;52.436;13.312;2022-12-18T01:57:52;-5.20;99.90
33699;DHT22;20032;52.436;13.312;2022-12-18T02:00:20;-5.20;99.90
33699;DHT22;20032;52.436;13.312;2022-12-18T02:02:47;-5.10;99.90
33699;DHT22;20032;52.436;13.312;2022-12-18T02:05:18;-5.00;99.90
33699;DHT22;20032;52.436;13.312;2022-12-18T02:08:08;-5.00;99.90
33699;DHT22;20032;52.436;13.312;2022-12-18T02:10:48;-5.20;99.90
33699;DHT22;20032;52.436;13.312;2022-12-18T02:13:21;-5.20;99.90
33699;DHT22;20032;52.436;13.312;2022-12-18T02:16:29;-5.10;99.90
33699;DHT22;20032;52.436;13.312;2022-12-18T02:18:43;-5.10;99.90
33699;DHT22;20032;52.436;13.312;2022-12-18T02:22:46;-5.40;99.90
33699;DHT22;20032;52.436;13.312;2022-12-18T02:24:24;-5.40;99.90
33699;DHT22;20032;52.436;13.312;2022-12-18T02:27:02;-5.40;99.90
33699;DHT22;20032;52.436;13.312;2022-12-18T02:29:50;-5.40;99.90
33699;DHT22;20032;52.436;13.312;2022-12-18T02:32:25;-5.10;99.90
33699;DHT22;20032;52.436;13.312;2022-12-18T02:34:54;-5.30;99.90
33699;DHT22;20032;52.436;13.312;2022-12-18T02:37:21;-5.30;99.90
33699;DHT22;20032;52.436;13.312;2022-12-18T02:39:49;-5.10;99.90
33699;DHT22;20032;52.436;13.312;2022-12-18T02:42:15;-5.20;99.90
33699;DHT22;20032;52.436;13.312;2022-12-18T02:44:43;-5.30;99.90
33699;DHT22;20032;52.436;13.312;2022-12-18T02:47:11;-5.20;99.90
33699;DHT22;20032;52.436;13.312;2022-12-18T02:52:49;-5.20;99.90
33699;DHT22;20032;52.436;13.312;2022-12-18T03:00:29;-5.20;99.90
33699;DHT22;20032;52.436;13.312;2022-12-18T03:03:03;-5.30;99.90
33699;DHT22;20032;52.436;13.312;2022-12-18T03:05:35;-5.10;99.90
33699;DHT22;20032;52.436;13.312;2022-12-18T03:08:07;-5.10;99.90
33699;DHT22;20032;52.436;13.312;2022-12-18T03:10:38;-5.10;99.90
33699;DHT22;20032;52.436;13.312;2022-12-18T03:13:12;-5.10;99.90
33699;DHT22;20032;52.436;13.312;2022-12-18T03:15:42;-5.20;99.90
33699;DHT22;20032;52.436;13.312;2022-12-18T03:18:15;-5.00;99.90
33699;DHT22;20032;52.436;13.312;2022-12-18T03:20:43;-5.10;99.90
33699;DHT22;20032;52.436;13.312;2022-12-18T03:23:12;-5.20;99.90
33699;DHT22;20032;52.436;13.312;2022-12-18T03:25:41;-5.20;99.90
33699;DHT22;20032;52.436;13.312;2022-12-18T03:28:12;-5.20;99.90
33699;DHT22;20032;52.436;13.312;2022-12-18T03:30:40;-5.20;99.90
33699;DHT22;20032;52.436;13.312;2022-12-18T03:33:10;-5.20;99.90
33699;DHT22;20032;52.436;13.312;2022-12-18T03:35:40;-5.30;99.90
33699;DHT22;20032;52.436;13.312;2022-12-18T03:38:07;-5.40;99.90
33699;DHT22;20032;52.436;13.312;2022-12-18T03:40:44;-5.30;99.90
33699;DHT22;20032;52.436;13.312;2022-12-18T03:43:26;-5.30;99.90
33699;DHT22;20032;52.436;13.312;2022-12-18T03:46:02;-5.40;99.90
33699;DHT22;20032;52.436;13.312;2022-12-18T03:48:34;-5.40;99.90
33699;DHT22;20032;52.436;13.312;2022-12-18T03:51:07;-5.30;99.90
33699;DHT22;20032;52.436;13.312;2022-12-18T03:53:42;-5.30;99.90
33699;DHT22;20032;52.436;13.312;2022-12-18T03:56:09;-5.30;99.90
33699;DHT22;20032;52.436;13.312;2022-12-18T03:58:37;-5.30;99.90
33699;DHT22;20032;52.436;13.312;2022-12-18T04:01:07;-5.40;99.90
33699;DHT22;20032;52.436;13.312;2022-12-18T04:03:34;-5.30;99.90
33699;DHT22;20032;52.436;13.312;2022-12-18T04:06:01;-5.50;99.90
33699;DHT22;20032;52.436;13.312;2022-12-18T04:08:28;-5.60;99.90
33699;DHT22;20032;52.436;13.312;2022-12-18T04:10:54;-5.60;99.90
33699;DHT22;20032;52.436;13.312;2022-12-18T04:13:24;-5.40;99.90
33699;DHT22;20032;52.436;13.312;2022-12-18T04:15:49;-5.40;99.90
33699;DHT22;20032;52.436;13.312;2022-12-18T04:18:15;-5.40;99.90
33699;DHT22;20032;52.436;13.312;2022-12-18T04:20:40;-5.30;99.90
33699;DHT22;20032;52.436;13.312;2022-12-18T04:23:06;-5.30;99.90
33699;DHT22;20032;52.436;13.312;2022-12-18T04:25:31;-5.20;99.90
33699;DHT22;20032;52.436;13.312;2022-12-18T04:27:57;-5.30;99.90
33699;DHT22;20032;52.436;13.312;2022-12-18T04:30:22;-5.40;99.90
33699;DHT22;20032;52.436;13.312;2022-12-18T04:32:47;-5.30;99.90
33699;DHT22;20032;52.436;13.312;2022-12-18T04:35:13;-5.30;99.90
33699;DHT22;20032;52.436;13.312;2022-12-18T04:37:38;-5.40;99.90
33699;DHT22;20032;52.436;13.312;2022-12-18T04:40:04;-5.60;99.90
33699;DHT22;20032;52.436;13.312;2022-12-18T04:42:32;-5.70;99.90
33699;DHT22;20032;52.436;13.312;2022-12-18T04:44:57;-5.60;99.90
33699;DHT22;20032;52.436;13.312;2022-12-18T04:47:24;-5.70;99.90
33699;DHT22;20032;52.436;13.312;2022-12-18T04:49:49;-5.70;99.90
33699;DHT22;20032;52.436;13.312;2022-12-18T04:52:15;-5.70;99.90
33699;DHT22;20032;52.436;13.312;2022-12-18T04:54:40;-5.60;99.90
33699;DHT22;20032;52.436;13.312;2022-12-18T04:57:06;-5.50;99.90
33699;DHT22;20032;52.436;13.312;2022-12-18T04:59:31;-5.40;99.90
33699;DHT22;20032;52.436;13.312;2022-12-18T05:01:57;-5.50;99.90
33699;DHT22;20032;52.436;13.312;2022-12-18T05:04:23;-5.70;99.90
33699;DHT22;20032;52.436;13.312;2022-12-18T05:06:49;-5.80;99.90
33699;DHT22;20032;52.436;13.312;2022-12-18T05:09:14;-5.80;99.90
33699;DHT22;20032;52.436;13.312;2022-12-18T05:11:40;-5.60;99.90
33699;DHT22;20032;52.436;13.312;2022-12-18T05:14:05;-5.50;99.90
33699;DHT22;20032;52.436;13.312;2022-12-18T05:16:31;-5.50;99.90
33699;DHT22;20032;52.436;13.312;2022-12-18T05:18:56;-5.50;99.90
33699;DHT22;20032;52.436;13.312;2022-12-18T05:21:22;-5.50;99.90
33699;DHT22;20032;52.436;13.312;2022-12-18T05:23:47;-5.50;99.90
33699;DHT22;20032;52.436;13.312;2022-12-18T05:26:16;-5.50;99.90
33699;DHT22;20032;52.436;13.312;2022-12-18T05:28:43;-5.50;99.90
33699;DHT22;20032;52.436;13.312;2022-12-18T05:31:09;-5.60;99.90
33699;DHT22;20032;52.436;13.312;2022-12-18T05:33:35;-5.60;99.90
33699;DHT22;20032;52.436;13.312;2022-12-18T05:36:04;-5.50;99.90
33699;DHT22;20032;52.436;13.312;2022-12-18T05:38:31;-5.50;99.90
33699;DHT22;20032;52.436;13.312;2022-12-18T05:40:57;-5.50;99.90
33699;DHT22;20032;52.436;13.312;2022-12-18T05:43:24;-5.40;99.90
33699;DHT22;20032;52.436;13.312;2022-12-18T05:45:51;-5.40;99.90
33699;DHT22;20032;52.436;13.312;2022-12-18T05:48:17;-5.40;99.90
33699;DHT22;20032;52.436;13.312;2022-12-18T05:50:44;-5.40;99.90
33699;DHT22;20032;52.436;13.312;2022-12-18T05:53:13;-5.50;99.90
33699;DHT22;20032;52.436;13.312;2022-12-18T05:55:41;-5.60;99.90
33699;DHT22;20032;52.436;13.312;2022-12-18T05:58:07;-5.60;99.90
33699;DHT22;20032;52.436;13.312;2022-12-18T06:00:35;-5.50;99.90
33699;DHT22;20032;52.436;13.312;2022-12-18T06:03:03;-5.30;99.90
33699;DHT22;20032;52.436;13.312;2022-12-18T06:05:29;-5.30;99.90
33699;DHT22;20032;52.436;13.312;2022-12-18T06:07:59;-5.40;99.90
33699;DHT22;20032;52.436;13.312;2022-12-18T06:10:25;-5.40;99.90
33699;DHT22;20032;52.436;13.312;2022-12-18T06:12:50;-5.40;99.90
33699;DHT22;20032;52.436;13.312;2022-12-18T06:15:19;-5.40;99.90
33699;DHT22;20032;52.436;13.312;2022-12-18T06:17:44;-5.50;99.90
33699;DHT22;20032;52.436;13.312;2022-12-18T06:20:10;-5.60;99.90
33699;DHT22;20032;52.436;13.312;2022-12-18T06:22:35;-5.50;99.90
33699;DHT22;20032;52.436;13.312;2022-12-18T06:25:01;-5.50;99.90
33699;DHT22;20032;52.436;13.312;2022-12-18T06:27:26;-5.60;99.90
33699;DHT22;20032;52.436;13.312;2022-12-18T06:29:52;-5.60;99.90
33699;DHT22;20032;52.436;13.312;2022-12-18T06:32:17;-5.60;99.90
33699;DHT22;20032;52.436;13.312;2022-12-18T06:34:42;-5.60;99.90
33699;DHT22;20032;52.436;13.312;2022-12-18T06:37:08;-5.50;99.90
33699;DHT22;20032;52.436;13.312;2022-12-18T06:39:33;-5.50;99.90
33699;DHT22;20032;52.436;13.312;2022-12-18T06:41:59;-5.40;99.90
33699;DHT22;20032;52.436;13.312;2022-12-18T06:44:24;-5.40;99.90
33699;DHT22;20032;52.436;13.312;2022-12-18T06:46:50;-5.40;99.90
33699;DHT22;20032;52.436;13.312;2022-12-18T06:49:15;-5.50;99.90
33699;DHT22;20032;52.436;13.312;2022-12-18T06:51:41;-5.50;99.90
33699;DHT22;20032;52.436;13.312;2022-12-18T06:54:13;-5.40;99.90
33699;DHT22;20032;52.436;13.312;2022-12-18T06:56:38;-5.30;99.90
33699;DHT22;20032;52.436;13.312;2022-12-18T06:59:04;-5.50;99.90
33699;DHT22;20032;52.436;13.312;2022-12-18T07:01:29;-5.40;99.90
33699;DHT22;20032;52.436;13.312;2022-12-18T07:03:56;-5.40;99.90
33699;DHT22;20032;52.436;13.312;2022-12-18T07:06:24;-5.40;99.90
33699;DHT22;20032;52.436;13.312;2022-12-18T07:08:52;-5.30;99.90
33699;DHT22;20032;52.436;13.312;2022-12-18T07:11:18;-5.20;99.90
33699;DHT22;20032;52.436;13.312;2022-12-18T07:13:45;-5.20;99.90
33699;DHT22;20032;52.436;13.312;2022-12-18T07:16:14;-5.20;99.90
33699;DHT22;20032;52.436;13.312;2022-12-18T07:18:41;-5.10;99.90
33699;DHT22;20032;52.436;13.312;2022-12-18T07:21:08;-5.10;99.90
33699;DHT22;20032;52.436;13.312;2022-12-18T07:23:34;-5.20;99.90
33699;DHT22;20032;52.436;13.312;2022-12-18T07:26:02;-5.20;99.90
33699;DHT22;20032;52.436;13.312;2022-12-18T07:28:34;-5.20;99.90
33699;DHT22;20032;52.436;13.312;2022-12-18T07:31:04;-5.10;99.90
33699;DHT22;20032;52.436;13.312;2022-12-18T07:33:32;-5.00;99.90
33699;DHT22;20032;52.436;13.312;2022-12-18T07:35:59;-5.00;99.90
33699;DHT22;20032;52.436;13.312;2022-12-18T07:38:24;-5.10;99.90
33699;DHT22;20032;52.436;13.312;2022-12-18T07:40:50;-5.10;99.90
33699;DHT22;20032;52.436;13.312;2022-12-18T07:43:15;-5.00;99.90
33699;DHT22;20032;52.436;13.312;2022-12-18T07:45:42;-5.00;99.90
33699;DHT22;20032;52.436;13.312;2022-12-18T07:48:07;-5.00;99.90
33699;DHT22;20032;52.436;13.312;2022-12-18T07:50:33;-4.90;99.90
33699;DHT22;20032;52.436;13.312;2022-12-18T07:52:58;-5.10;99.90
33699;DHT22;20032;52.436;13.312;2022-12-18T07:55:30;-5.10;99.90
33699;DHT22;20032;52.436;13.312;2022-12-18T07:57:55;-5.20;99.90
33699;DHT22;20032;52.436;13.312;2022-12-18T08:00:26;-5.20;99.90
33699;DHT22;20032;52.436;13.312;2022-12-18T08:02:52;-5.20;99.90
33699;DHT22;20032;52.436;13.312;2022-12-18T08:05:18;-5.20;99.90
33699;DHT22;20032;52.436;13.312;2022-12-18T08:07:44;-5.20;99.90
33699;DHT22;20032;52.436;13.312;2022-12-18T08:10:09;-5.00;99.90
33699;DHT22;20032;52.436;13.312;2022-12-18T08:12:35;-4.90;99.90
33699;DHT22;20032;52.436;13.312;2022-12-18T08:15:00;-4.90;99.90
33699;DHT22;20032;52.436;13.312;2022-12-18T08:17:26;-4.80;99.90
33699;DHT22;20032;52.436;13.312;2022-12-18T08:19:52;-4.80;99.90
33699;DHT22;20032;52.436;13.312;2022-12-18T08:22:17;-4.90;99.90
33699;DHT22;20032;52.436;13.312;2022-12-18T08:24:43;-5.00;99.90
33699;DHT22;20032;52.436;13.312;2022-12-18T08:27:08;-4.90;99.90
33699;DHT22;20032;52.436;13.312;2022-12-18T08:29:34;-4.90;99.90
33699;DHT22;20032;52.436;13.312;2022-12-18T08:31:59;-4.80;99.90
33699;DHT22;20032;52.436;13.312;2022-12-18T08:34:27;-4.70;99.90
33699;DHT22;20032;52.436;13.312;2022-12-18T08:36:52;-4.60;99.90
33699;DHT22;20032;52.436;13.312;2022-12-18T08:39:19;-4.60;99.90
33699;DHT22;20032;52.436;13.312;2022-12-18T08:41:44;-4.50;99.90
33699;DHT22;20032;52.436;13.312;2022-12-18T08:44:30;-4.70;99.90
33699;DHT22;20032;52.436;13.312;2022-12-18T08:47:03;-4.80;99.90
33699;DHT22;20032;52.436;13.312;2022-12-18T08:49:29;-4.70;99.90
33699;DHT22;20032;52.436;13.312;2022-12-18T08:51:56;-4.90;99.90
33699;DHT22;20032;52.436;13.312;2022-12-18T08:54:23;-4.90;99.90
33699;DHT22;20032;52.436;13.312;2022-12-18T08:56:48;-4.80;99.90
33699;DHT22;20032;52.436;13.312;2022-12-18T08:59:15;-4.60;99.90
33699;DHT22;20032;52.436;13.312;2022-12-18T09:01:41;-4.60;99.90
33699;DHT22;20032;52.436;13.312;2022-12-18T09:04:08;-4.50;99.90
33699;DHT22;20032;52.436;13.312;2022-12-18T09:06:34;-4.50;99.90
33699;DHT22;20032;52.436;13.312;2022-12-18T09:09:00;-4.50;99.90
33699;DHT22;20032;52.436;13.312;2022-12-18T09:11:27;-4.70;99.90
33699;DHT22;20032;52.436;13.312;2022-12-18T09:13:54;-4.80;99.90
33699;DHT22;20032;52.436;13.312;2022-12-18T09:16:20;-4.80;99.90
33699;DHT22;20032;52.436;13.312;2022-12-18T09:18:51;-4.80;99.90
33699;DHT22;20032;52.436;13.312;2022-12-18T09:21:20;-4.70;99.90
33699;DHT22;20032;52.436;13.312;2022-12-18T09:23:50;-4.60;99.90
33699;DHT22;20032;52.436;13.312;2022-12-18T09:26:16;-4.70;99.90
33699;DHT22;20032;52.436;13.312;2022-12-18T09:28:43;-4.60;99.90
33699;DHT22;20032;52.436;13.312;2022-12-18T09:31:11;-4.70;99.90
33699;DHT22;20032;52.436;13.312;2022-12-18T09:33:36;-4.70;99.90
33699;DHT22;20032;52.436;13.312;2022-12-18T09:36:06;-4.70;99.90
33699;DHT22;20032;52.436;13.312;2022-12-18T09:38:33;-4.60;99.90
33699;DHT22;20032;52.436;13.312;2022-12-18T09:41:04;-4.40;99.90
33699;DHT22;20032;52.436;13.312;2022-12-18T09:43:45;-4.30;99.90
33699;DHT22;20032;52.436;13.312;2022-12-18T09:46:17;-4.30;99.90
33699;DHT22;20032;52.436;13.312;2022-12-18T09:48:48;-4.30;99.90
33699;DHT22;20032;52.436;13.312;2022-12-18T09:51:18;-4.30;99.90
33699;DHT22;20032;52.436;13.312;2022-12-18T09:53:47;-4.10;99.90
33699;DHT22;20032;52.436;13.312;2022-12-18T09:56:18;-4.10;99.90
33699;DHT22;20032;52.436;13.312;2022-12-18T09:58:52;-4.20;99.90
33699;DHT22;20032;52.436;13.312;2022-12-18T10:01:22;-4.10;99.90
33699;DHT22;20032;52.436;13.312;2022-12-18T10:03:48;-4.20;99.90
33699;DHT22;20032;52.436;13.312;2022-12-18T10:06:52;-4.00;99.90
33699;DHT22;20032;52.436;13.312;2022-12-18T10:10:10;-3.90;99.90
33699;DHT22;20032;52.436;13.312;2022-12-18T10:12:01;-3.90;99.90
33699;DHT22;20032;52.436;13.312;2022-12-18T10:14:42;-4.00;99.90
33699;DHT22;20032;52.436;13.312;2022-12-18T10:17:19;-4.10;99.90
33699;DHT22;20032;52.436;13.312;2022-12-18T10:19:56;-4.10;99.90
33699;DHT22;20032;52.436;13.312;2022-12-18T10:22:46;-4.20;99.90
33699;DHT22;20032;52.436;13.312;2022-12-18T10:27:43;-4.10;99.90
33699;DHT22;20032;52.436;13.312;2022-12-18T10:30:15;-4.10;99.90
33699;DHT22;20032;52.436;13.312;2022-12-18T10:32:41;-3.90;99.90
33699;DHT22;20032;52.436;13.312;2022-12-18T10:35:18;-3.90;99.90
33699;DHT22;20032;52.436;13.312;2022-12-18T10:43:30;-4.10;99.90
33699;DHT22;20032;52.436;13.312;2022-12-18T10:48:26;-4.10;99.90
33699;DHT22;20032;52.436;13.312;2022-12-18T10:50:53;-4.10;99.90
33699;DHT22;20032;52.436;13.312;2022-12-18T10:53:22;-4.00;99.90
33699;DHT22;20032;52.436;13.312;2022-12-18T10:55:49;-4.00;99.90
33699;DHT22;20032;52.436;13.312;2022-12-18T10:58:32;-3.90;99.90
33699;DHT22;20032;52.436;13.312;2022-12-18T11:01:17;-3.80;99.90
33699;DHT22;20032;52.436;13.312;2022-12-18T11:03:59;-3.70;99.90
33699;DHT22;20032;52.436;13.312;2022-12-18T11:06:26;-3.70;99.90
33699;DHT22;20032;52.436;13.312;2022-12-18T11:09:19;-3.70;99.90
33699;DHT22;20032;52.436;13.312;2022-12-18T11:11:49;-3.60;99.90
33699;DHT22;20032;52.436;13.312;2022-12-18T11:16:50;-3.50;99.90
33699;DHT22;20032;52.436;13.312;2022-12-18T11:19:36;-3.50;99.90
33699;DHT22;20032;52.436;13.312;2022-12-18T11:22:21;-3.30;99.90
33699;DHT22;20032;52.436;13.312;2022-12-18T11:25:02;-3.20;99.90
33699;DHT22;20032;52.436;13.312;2022-12-18T11:27:29;-3.10;99.90
33699;DHT22;20032;52.436;13.312;2022-12-18T11:30:39;-3.20;99.90
33699;DHT22;20032;52.436;13.312;2022-12-18T11:33:14;-3.20;99.90
33699;DHT22;20032;52.436;13.312;2022-12-18T11:35:49;-3.20;99.90
33699;DHT22;20032;52.436;13.312;2022-12-18T11:38:35;-3.10;99.90
33699;DHT22;20032;52.436;13.312;2022-12-18T11:41:29;-3.20;99.90
33699;DHT22;20032;52.436;13.312;2022-12-18T11:44:24;-3.20;99.90
33699;DHT22;20032;52.436;13.312;2022-12-18T11:47:01;-3.20;99.90
33699;DHT22;20032;52.436;13.312;2022-12-18T11:49:33;-3.20;99.90
33699;DHT22;20032;52.436;13.312;2022-12-18T11:52:21;-3.40;99.90
33699;DHT22;20032;52.436;13.312;2022-12-18T11:54:51;-3.40;99.90
33699;DHT22;20032;52.436;13.312;2022-12-18T12:00:23;-3.50;99.90
33699;DHT22;20032;52.436;13.312;2022-12-18T12:03:15;-3.50;99.90
33699;DHT22;20032;52.436;13.312;2022-12-18T12:09:30;-3.30;99.90
33699;DHT22;20032;52.436;13.312;2022-12-18T12:11:35;-3.30;99.90
33699;DHT22;20032;52.436;13.312;2022-12-18T12:17:30;-3.20;99.90
33699;DHT22;20032;52.436;13.312;2022-12-18T12:20:20;-3.20;99.90
33699;DHT22;20032;52.436;13.312;2022-12-18T12:23:13;-3.30;99.90
33699;DHT22;20032;52.436;13.312;2022-12-18T12:25:48;-3.30;99.90
33699;DHT22;20032;52.436;13.312;2022-12-18T12:34:20;-3.20;99.90
33699;DHT22;20032;52.436;13.312;2022-12-18T12:37:19;-3.10;99.90
33699;DHT22;20032;52.436;13.312;2022-12-18T12:39:47;-3.20;99.90
33699;DHT22;20032;52.436;13.312;2022-12-18T12:42:20;-3.20;99.90
33699;DHT22;20032;52.436;13.312;2022-12-18T12:45:16;-3.10;99.90
33699;DHT22;20032;52.436;13.312;2022-12-18T12:47:44;-3.00;99.90
33699;DHT22;20032;52.436;13.312;2022-12-18T12:50:15;-2.90;99.90
33699;DHT22;20032;52.436;13.312;2022-12-18T12:52:46;-3.00;99.90
33699;DHT22;20032;52.436;13.312;2022-12-18T12:55:18;-3.00;99.90
33699;DHT22;20032;52.436;13.312;2022-12-18T12:57:55;-3.00;99.90
33699;DHT22;20032;52.436;13.312;2022-12-18T13:00:23;-2.90;99.90
33699;DHT22;20032;52.436;13.312;2022-12-18T13:03:15;-2.90;99.90
33699;DHT22;20032;52.436;13.312;2022-12-18T13:06:00;-2.90;99.90
33699;DHT22;20032;52.436;13.312;2022-12-18T13:08:30;-2.80;99.90
33699;DHT22;20032;52.436;13.312;2022-12-18T13:10:57;-2.90;99.90
33699;DHT22;20032;52.436;13.312;2022-12-18T13:13:53;-3.00;99.90
33699;DHT22;20032;52.436;13.312;2022-12-18T13:16:20;-3.00;99.90
33699;DHT22;20032;52.436;13.312;2022-12-18T13:18:52;-3.00;99.90
33699;DHT22;20032;52.436;13.312;2022-12-18T13:21:24;-3.00;99.90
33699;DHT22;20032;52.436;13.312;2022-12-18T13:23:53;-3.00;99.90
33699;DHT22;20032;52.436;13.312;2022-12-18T13:28:52;-3.00;99.90
33699;DHT22;20032;52.436;13.312;2022-12-18T13:34:23;-3.20;99.90
33699;DHT22;20032;52.436;13.312;2022-12-18T13:36:50;-3.20;99.90
33699;DHT22;20032;52.436;13.312;2022-12-18T13:41:50;-3.10;99.90
33699;DHT22;20032;52.436;13.312;2022-12-18T13:44:36;-3.10;99.90
33699;DHT22;20032;52.436;13.312;2022-12-18T13:47:04;-2.90;99.90
33699;DHT22;20032;52.436;13.312;2022-12-18T13:49:46;-2.90;99.90
33699;DHT22;20032;52.436;13.312;2022-12-18T13:52:17;-2.90;99.90
33699;DHT22;20032;52.436;13.312;2022-12-18T13:54:55;-2.90;99.90
33699;DHT22;20032;52.436;13.312;2022-12-18T13:57:38;-3.00;99.90
33699;DHT22;20032;52.436;13.312;2022-12-18T14:02:51;-3.20;99.90
33699;DHT22;20032;52.436;13.312;2022-12-18T14:07:55;-3.00;99.90
33699;DHT22;20032;52.436;13.312;2022-12-18T14:10:25;-2.90;99.90
33699;DHT22;20032;52.436;13.312;2022-12-18T14:12:51;-3.00;99.90
33699;DHT22;20032;52.436;13.312;2022-12-18T14:17:57;-3.00;99.90
33699;DHT22;20032;52.436;13.312;2022-12-18T14:20:25;-3.10;99.90
33699;DHT22;20032;52.436;13.312;2022-12-18T14:22:51;-3.20;99.90
33699;DHT22;20032;52.436;13.312;2022-12-18T14:25:21;-3.00;99.90
33699;DHT22;20032;52.436;13.312;2022-12-18T14:27:51;-3.00;99.90
33699;DHT22;20032;52.436;13.312;2022-12-18T14:30:29;-2.90;99.90
33699;DHT22;20032;52.436;13.312;2022-12-18T14:35:54;-2.90;99.90
33699;DHT22;20032;52.436;13.312;2022-12-18T14:38:23;-2.90;99.90
33699;DHT22;20032;52.436;13.312;2022-12-18T14:41:10;-3.00;99.90
33699;DHT22;20032;52.436;13.312;2022-12-18T14:43:39;-3.10;99.90
33699;DHT22;20032;52.436;13.312;2022-12-18T14:46:27;-3.20;99.90
33699;DHT22;20032;52.436;13.312;2022-12-18T14:48:54;-3.20;99.90
33699;DHT22;20032;52.436;13.312;2022-12-18T14:51:22;-3.20;99.90
33699;DHT22;20032;52.436;13.312;2022-12-18T14:53:56;-3.20;99.90
33699;DHT22;20032;52.436;13.312;2022-12-18T14:56:28;-3.10;99.90
33699;DHT22;20032;52.436;13.312;2022-12-18T14:58:58;-3.10;99.90
33699;DHT22;20032;52.436;13.312;2022-12-18T15:01:30;-3.10;99.90
33699;DHT22;20032;52.436;13.312;2022-12-18T15:03:58;-3.20;99.90
33699;DHT22;20032;52.436;13.312;2022-12-18T15:06:28;-3.20;99.90
33699;DHT22;20032;52.436;13.312;2022-12-18T15:08:54;-3.10;99.90
33699;DHT22;20032;52.436;13.312;2022-12-18T15:11:32;-3.20;99.90
33699;DHT22;20032;52.436;13.312;2022-12-18T15:13:58;-3.30;99.90
33699;DHT22;20032;52.436;13.312;2022-12-18T15:16:24;-3.20;99.90
33699;DHT22;20032;52.436;13.312;2022-12-18T15:18:50;-3.20;99.90
33699;DHT22;20032;52.436;13.312;2022-12-18T15:21:18;-3.10;99.90
33699;DHT22;20032;52.436;13.312;2022-12-18T15:23:52;-3.20;99.90
33699;DHT22;20032;52.436;13.312;2022-12-18T15:26:20;-3.40;99.90
33699;DHT22;20032;52.436;13.312;2022-12-18T15:28:50;-3.50;99.90
33699;DHT22;20032;52.436;13.312;2022-12-18T15:34:00;-3.50;99.90
33699;DHT22;20032;52.436;13.312;2022-12-18T15:36:28;-3.50;99.90
33699;DHT22;20032;52.436;13.312;2022-12-18T15:38:56;-3.60;99.90
33699;DHT22;20032;52.436;13.312;2022-12-18T15:41:22;-3.50;99.90
33699;DHT22;20032;52.436;13.312;2022-12-18T15:43:49;-3.30;99.90
33699;DHT22;20032;52.436;13.312;2022-12-18T15:46:19;-3.30;99.90
33699;DHT22;20032;52.436;13.312;2022-12-18T15:48:47;-3.40;99.90
33699;DHT22;20032;52.436;13.312;2022-12-18T15:51:17;-3.40;99.90
33699;DHT22;20032;52.436;13.312;2022-12-18T15:53:43;-3.40;99.90
33699;DHT22;20032;52.436;13.312;2022-12-18T15:56:11;-3.50;99.90
33699;DHT22;20032;52.436;13.312;2022-12-18T15:58:57;-3.50;99.90
33699;DHT22;20032;52.436;13.312;2022-12-18T16:01:26;-3.50;99.90
33699;DHT22;20032;52.436;13.312;2022-12-18T16:03:51;-3.50;99.90
33699;DHT22;20032;52.436;13.312;2022-12-18T16:06:18;-3.60;99.90
33699;DHT22;20032;52.436;13.312;2022-12-18T16:08:44;-3.50;99.90
33699;DHT22;20032;52.436;13.312;2022-12-18T16:11:23;-3.50;99.90
33699;DHT22;20032;52.436;13.312;2022-12-18T16:14:35;-3.40;99.90
33699;DHT22;20032;52.436;13.312;2022-12-18T16:16:51;-3.30;99.90
33699;DHT22;20032;52.436;13.312;2022-12-18T16:19:18;-3.30;99.90
33699;DHT22;20032;52.436;13.312;2022-12-18T16:21:44;-3.20;99.90
33699;DHT22;20032;52.436;13.312;2022-12-18T16:24:20;-3.30;99.90
33699;DHT22;20032;52.436;13.312;2022-12-18T16:26:47;-3.30;99.90
33699;DHT22;20032;52.436;13.312;2022-12-18T16:29:18;-3.30;99.90
33699;DHT22;20032;52.436;13.312;2022-12-18T16:31:44;-3.40;99.90
33699;DHT22;20032;52.436;13.312;2022-12-18T16:34:30;-3.30;99.90
33699;DHT22;20032;52.436;13.312;2022-12-18T16:36:58;-3.30;99.90